ASA61 PAJN-PANC
Flight info
| Callsign | ASA61 |
|---|---|
| Flight time | N/A |
| Altitude | 36000 |
| Route | ASORT2 ASORT YESKA TED TAGER9 |
| Aircraft | B737/M-SDE2E3FGHIRWXY/LB1 |
Departure
| Time | 2026-04-12 04:40 |
|---|---|
| Airport | Juneau International Airport (PAJN) |
Arrival
| Time | N/A |
|---|---|
| Airport | Ted Stevens Anchorage International Airport (PANC) |
| Time | Latitude | Longitude | Altitude | Speed | Heading |
|---|---|---|---|---|---|
| 2026-04-12 04:20 | 58.35831 | -134.58299 | -14 ft | 0 kts | 360° |
| 2026-04-12 04:34 | 58.35815 | -134.58299 | -15 ft | 2 kts | 359° |
| 2026-04-12 04:34 | 58.35805 | -134.58301 | -15 ft | 2 kts | 359° |
| 2026-04-12 04:35 | 58.35789 | -134.58295 | -16 ft | 2 kts | 336° |
| 2026-04-12 04:35 | 58.35775 | -134.58278 | -16 ft | 2 kts | 318° |
| 2026-04-12 04:35 | 58.35765 | -134.58255 | -16 ft | 2 kts | 299° |
| 2026-04-12 04:35 | 58.35760 | -134.58235 | -16 ft | 0 kts | 285° |
| 2026-04-12 04:36 | 58.35759 | -134.58223 | -16 ft | 0 kts | 283° |
| 2026-04-12 04:37 | 58.35760 | -134.58235 | -21 ft | 4 kts | 283° |
| 2026-04-12 04:37 | 58.35778 | -134.58379 | -23 ft | 11 kts | 283° |
| 2026-04-12 04:37 | 58.35797 | -134.58525 | -23 ft | 9 kts | 282° |
| 2026-04-12 04:38 | 58.35777 | -134.58633 | -23 ft | 10 kts | 225° |
| 2026-04-12 04:38 | 58.35767 | -134.58791 | -24 ft | 13 kts | 284° |
| 2026-04-12 04:38 | 58.35793 | -134.58981 | -24 ft | 13 kts | 284° |
| 2026-04-12 04:38 | 58.35823 | -134.59177 | -24 ft | 14 kts | 287° |
| 2026-04-12 04:39 | 58.35851 | -134.59383 | -25 ft | 14 kts | 282° |
| 2026-04-12 04:39 | 58.35872 | -134.59561 | -24 ft | 8 kts | 279° |
| 2026-04-12 04:39 | 58.35842 | -134.59641 | -25 ft | 8 kts | 184° |
| 2026-04-12 04:39 | 58.35780 | -134.59624 | -24 ft | 8 kts | 127° |
| 2026-04-12 04:40 | 58.35746 | -134.59421 | -24 ft | 34 kts | 103° |
| 2026-04-12 04:40 | 58.35594 | -134.58351 | -23 ft | 117 kts | 103° |
| 2026-04-12 04:40 | 58.35323 | -134.56377 | 261 ft | 159 kts | 104° |
| 2026-04-12 04:40 | 58.35025 | -134.54356 | 1016 ft | 165 kts | 112° |
| 2026-04-12 04:41 | 58.34212 | -134.52707 | 1617 ft | 184 kts | 156° |
| 2026-04-12 04:41 | 58.32897 | -134.52368 | 2061 ft | 203 kts | 185° |
| 2026-04-12 04:41 | 58.31576 | -134.53058 | 2684 ft | 212 kts | 206° |
| 2026-04-12 04:41 | 58.30339 | -134.54746 | 3216 ft | 226 kts | 229° |
| 2026-04-12 04:42 | 58.29565 | -134.57295 | 3939 ft | 230 kts | 254° |
| 2026-04-12 04:42 | 58.29512 | -134.60359 | 4244 ft | 249 kts | 288° |
| 2026-04-12 04:42 | 58.30143 | -134.63409 | 5030 ft | 252 kts | 288° |
| 2026-04-12 04:43 | 58.30641 | -134.69688 | 6122 ft | 273 kts | 276° |